Airfield :
LOGIN :

Register | Disclaimer

   EN    FR    IT 

 










Legend :    VFR   Marginal VFR   IFR   Intensive IFR   Very Intensive IFR
Visi :
Ceiling :
>= 8 km
>= 3000ft
5 to 8 km
1000 to 3000 ft
1500m to 5 km
500 to 1000 ft
800 to 1500m
200 to 500 ft
< 800m
< 200 ft
Symbols :   Thunderstorms  Fog  Heavy snow  Heavy precipitations  Wind > 20 kt
SIGMETs :     Misc.  Thunderstorms  Icing  Turbulence  Mountain Waves  Volcanic Ashes







- Airport Elevation : 202 ft
- IATA code : LGW
- Download approach charts


EGKK - London Gatwick

CURRENT METAR :
  • 182250Z 29006KT CAVOK 07/06 Q1021

EXPIRED METARs :
  • 182220Z 28007KT CAVOK 07/06 Q1021
  • 182150Z 27007KT CAVOK 07/06 Q1021
  • 182120Z 26005KT CAVOK 07/06 Q1020
  • 182050Z 27006KT 9999 BKN041 07/06 Q1020
  • 182020Z 28003KT 9999 BKN031 07/07 Q1020

TAF AMD TAF EGKK
Valid from the 18 at 18:00 until the 20 at 00:00 UTC


181806Z 1818/1924 30009KT 4000 RADZ BKN004
BECMG 1818/1820 9999 NSW FEW030
No reported NOTAMs for that airfield.



MET'MAP, your aeronautical weather chart ! - Copyright ORBIFLY December 2007 - Disclaimer

ORBIFLY MET'MAP TEAM :

Programming & Development : Alexandra Zaïnal
Concept & Development : Baudouin d'Aumeries
Co-Development & Prog : Marc-Olivier Méhu
Technical & hardware support : Manuel Goepfert

Contact : metmap@orbifly.com




SOURCES & CREDITS :

   NOAA